Airport View

Enter AWOS ICAO identifier for current METAR.

ex. KFNL

K6B0 051335Z AUTO 17007KT 10SM SCT022 BKN032 BKN038 22/18 A2995 RMK AO2 T02170177

5 Aug 2020 14:01

Frequency: 118.575

Phone: 802-388-0255

Other Area AWOS: KMPV - KRUT - KBTV - KMVL

TAF KMPV 051124Z 0512/0612 21005KT P6SM SCT070 FM051500 23010G18KT P6SM BKN060 FM052000 24008KT P6SM SCT080 FM060100 VRB04KT P6SM FEW250